Southport, California
Current Conditions -  °F | °C
As of 5:04 AM on Wednesday 26 Nov 2014 (Local Time) from KSAC Reporting Station
Haze Haze  
Wind Chill: 39°   Ceiling: Unl
Heat Index: 39°   Visibility: 2.5mi
Dew Point: 39°   Wind: 0mph
Humidity: 100%   Direction: NA
Pressure: 30.34"   Gusts: NA
Location:  38.5256°N, 121.556°W
Report Text: KSAC 261304Z AUTO 00000KT 2 1/2SM BR CLR 04/04 A3034 RMK AO2
Loading
Personal Weather Stations






























Interactive Weather Map New forecast layout! Learn more

10-Day Weather Forecast

Advertisements
Track Severe Weather on mobile